createdAt,value
2022-10-16T00:00:59.422Z,99753.56
2022-10-16T00:03:29.555Z,99753.53
2022-10-16T00:06:17.261Z,99762.09
2022-10-16T00:08:44.898Z,99761.19
2022-10-16T00:11:18.973Z,99770.69
2022-10-16T00:13:49.390Z,99770.63
2022-10-16T00:16:16.918Z,99766.81
2022-10-16T00:18:44.012Z,99773.88
2022-10-16T00:21:14.641Z,99766.69
2022-10-16T00:23:44.165Z,99783.97
2022-10-16T00:26:14.290Z,99784.00
2022-10-16T00:28:41.458Z,99774.44
2022-10-16T00:31:12.950Z,99782.19
2022-10-16T00:33:41.223Z,99776.31
2022-10-16T00:36:10.945Z,99777.97
2022-10-16T00:38:38.991Z,99792.59
2022-10-16T00:41:08.923Z,99780.19
2022-10-16T00:43:43.135Z,99786.31
2022-10-16T00:46:42.982Z,99787.28
2022-10-16T00:49:15.853Z,99792.44
2022-10-16T00:51:46.545Z,99789.78
2022-10-16T00:54:21.360Z,99789.81
2022-10-16T00:56:48.843Z,99799.38
2022-10-16T00:59:20.336Z,99793.16
2022-10-16T01:01:47.244Z,99794.78
2022-10-16T01:04:14.205Z,99790.50
2022-10-16T01:06:49.762Z,99798.13
2022-10-16T01:09:32.762Z,99790.44
2022-10-16T01:12:07.292Z,99799.94
2022-10-16T01:14:54.355Z,99790.50
2022-10-16T01:17:29.206Z,99794.81
2022-10-16T01:20:11.105Z,99794.66
2022-10-16T01:22:55.256Z,99799.22
2022-10-16T01:25:50.431Z,99800.94
2022-10-16T01:28:20.369Z,99801.84
2022-10-16T01:30:48.628Z,99798.44
2022-10-16T01:33:22.395Z,99804.41
2022-10-16T01:35:56.071Z,99797.34
2022-10-16T01:38:37.895Z,99792.88
2022-10-16T01:41:16.086Z,99786.63
2022-10-16T01:43:57.115Z,99791.78
2022-10-16T01:46:25.474Z,99802.34
2022-10-16T01:48:53.546Z,99799.81
2022-10-16T01:51:21.929Z,99791.00
2022-10-16T01:53:55.512Z,99793.63
2022-10-16T01:56:24.694Z,99800.50
2022-10-16T01:58:57.067Z,99817.13
2022-10-16T02:01:27.935Z,99813.72
2022-10-16T02:04:01.199Z,99811.88
2022-10-16T02:06:28.138Z,99822.28
2022-10-16T02:08:55.107Z,99829.31
2022-10-16T02:11:22.156Z,99824.03
2022-10-16T02:14:07.814Z,99822.41
2022-10-16T02:16:46.503Z,99814.66
2022-10-16T02:19:21.280Z,99819.88
2022-10-16T02:22:01.238Z,99818.91
2022-10-16T02:24:50.035Z,99811.16
2022-10-16T02:27:22.677Z,99820.75
2022-10-16T02:29:59.766Z,99811.28
2022-10-16T02:32:32.228Z,99813.88
2022-10-16T02:35:01.470Z,99831.25
2022-10-16T02:37:29.556Z,99815.63
2022-10-16T02:39:58.847Z,99828.69
2022-10-16T02:42:43.898Z,99840.84
2022-10-16T02:45:12.398Z,99841.78
2022-10-16T02:47:39.389Z,99834.75
2022-10-16T02:50:06.728Z,99840.81
2022-10-16T02:52:33.502Z,99835.53
2022-10-16T02:55:00.433Z,99841.66
2022-10-16T02:57:27.791Z,99845.13
2022-10-16T02:59:55.087Z,99839.00
2022-10-16T03:02:22.256Z,99844.16
2022-10-16T03:04:49.184Z,99841.59
2022-10-16T03:07:16.211Z,99836.38
2022-10-16T03:09:43.094Z,99843.19
2022-10-16T03:12:09.913Z,99848.47
2022-10-16T03:14:50.763Z,99856.19
2022-10-16T03:17:18.074Z,99848.41
2022-10-16T03:19:44.971Z,99858.88
2022-10-16T03:22:12.075Z,99855.25
2022-10-16T03:24:39.376Z,99858.59
2022-10-16T03:27:06.953Z,99859.44
2022-10-16T03:29:34.085Z,99864.63
2022-10-16T03:32:01.599Z,99864.59
2022-10-16T03:34:29.022Z,99867.06
2022-10-16T03:36:56.174Z,99866.13
2022-10-16T03:39:22.965Z,99862.63
2022-10-16T03:41:49.754Z,99860.88
2022-10-16T03:44:16.595Z,99871.22
2022-10-16T03:46:43.613Z,99858.97
2022-10-16T03:49:10.461Z,99864.94
2022-10-16T03:51:37.390Z,99875.31
2022-10-16T03:54:04.346Z,99869.28
2022-10-16T03:56:31.161Z,99870.13
2022-10-16T03:58:58.065Z,99860.69
2022-10-16T04:01:25.082Z,99872.22
2022-10-16T04:03:51.906Z,99878.34
2022-10-16T04:06:18.928Z,99875.69
2022-10-16T04:08:46.056Z,99879.06
2022-10-16T04:11:13.129Z,99869.47
2022-10-16T04:13:40.822Z,99876.47
2022-10-16T04:16:07.691Z,99871.31
2022-10-16T04:18:34.574Z,99870.38
2022-10-16T04:21:06.045Z,99879.81
2022-10-16T04:23:33.567Z,99881.44
2022-10-16T04:26:00.969Z,99877.06
2022-10-16T04:28:27.944Z,99885.84
2022-10-16T04:30:55.006Z,99896.13
2022-10-16T04:33:21.876Z,99910.88
2022-10-16T04:35:48.651Z,99899.63
2022-10-16T04:38:15.607Z,99901.41
2022-10-16T04:40:43.552Z,99902.63
2022-10-16T04:43:10.746Z,99904.66
2022-10-16T04:45:37.754Z,99904.72
2022-10-16T04:48:04.951Z,99896.66
2022-10-16T04:50:31.772Z,99899.47
2022-10-16T04:52:58.604Z,99896.31
2022-10-16T04:55:25.462Z,99899.25
2022-10-16T04:57:52.299Z,99898.50
2022-10-16T05:00:19.551Z,99902.78
2022-10-16T05:02:46.365Z,99902.97
2022-10-16T05:05:13.245Z,99896.19
2022-10-16T05:07:40.074Z,99902.34
2022-10-16T05:10:07.232Z,99915.31
2022-10-16T05:12:34.182Z,99906.44
2022-10-16T05:15:01.170Z,99912.47
2022-10-16T05:17:28.584Z,99912.13
2022-10-16T05:19:55.871Z,99911.72
2022-10-16T05:22:22.983Z,99917.19
2022-10-16T05:24:49.752Z,99935.81
2022-10-16T05:27:20.228Z,99943.09
2022-10-16T05:29:48.466Z,99943.28
2022-10-16T05:32:17.107Z,99950.41
2022-10-16T05:34:44.535Z,99956.53
2022-10-16T05:37:12.755Z,99951.28
2022-10-16T05:39:39.948Z,99945.13
2022-10-16T05:42:07.326Z,99964.25
2022-10-16T05:47:01.107Z,99957.47
2022-10-16T05:49:28.095Z,99966.16
2022-10-16T05:51:55.018Z,99962.91
2022-10-16T05:54:21.848Z,99968.94
2022-10-16T05:56:48.629Z,99974.72
2022-10-16T05:59:15.446Z,99973.69
2022-10-16T06:01:42.330Z,99974.22
2022-10-16T06:06:38.237Z,99970.59
2022-10-16T06:09:05.777Z,99971.03
2022-10-16T06:11:33.987Z,99987.53
2022-10-16T06:14:08.117Z,99982.16
2022-10-16T06:16:36.555Z,99988.50
2022-10-16T06:19:07.322Z,99988.09
2022-10-16T06:21:34.556Z,99994.25
2022-10-16T06:24:01.347Z,100004.19
2022-10-16T06:26:46.915Z,100014.63
2022-10-16T06:29:13.697Z,100011.84
2022-10-16T06:31:40.668Z,100010.34
2022-10-16T06:34:11.759Z,100011.97
2022-10-16T06:36:39.527Z,100007.13
2022-10-16T06:39:08.398Z,100012.28
2022-10-16T06:41:35.621Z,100020.47
2022-10-16T06:44:02.983Z,100019.84
2022-10-16T06:46:29.866Z,100025.88
2022-10-16T06:48:56.835Z,100033.53
2022-10-16T06:51:25.309Z,100026.81
2022-10-16T06:54:02.950Z,100024.22
2022-10-16T06:56:32.474Z,100036.97
2022-10-16T06:59:00.089Z,100032.28
2022-10-16T07:01:28.976Z,100040.88
2022-10-16T07:03:55.934Z,100044.84
2022-10-16T07:06:25.368Z,100051.38
2022-10-16T07:08:52.841Z,100039.53
2022-10-16T07:11:23.024Z,100043.84
2022-10-16T07:13:55.090Z,100040.47
2022-10-16T07:16:29.198Z,100035.25
2022-10-16T07:19:00.323Z,100045.38
2022-10-16T07:21:30.308Z,100039.94
2022-10-16T07:24:02.513Z,100044.31
2022-10-16T07:26:32.202Z,100050.59
2022-10-16T07:28:59.592Z,100043.91
2022-10-16T07:31:26.926Z,100048.66
2022-10-16T07:33:54.899Z,100045.00
2022-10-16T07:36:22.894Z,100045.66
2022-10-16T07:38:51.080Z,100049.19
2022-10-16T07:41:21.177Z,100051.72
2022-10-16T07:43:53.178Z,100053.53
2022-10-16T07:46:22.677Z,100044.47
2022-10-16T07:48:49.883Z,100062.81
2022-10-16T07:51:19.982Z,100055.94
2022-10-16T07:53:47.975Z,100054.00
2022-10-16T07:56:15.607Z,100060.31
2022-10-16T07:58:42.582Z,100060.53
2022-10-16T08:01:11.540Z,100059.63
2022-10-16T08:03:38.608Z,100063.16
2022-10-16T08:06:06.427Z,100069.81
2022-10-16T08:08:51.906Z,100072.81
2022-10-16T08:11:18.995Z,100065.16
2022-10-16T08:13:45.827Z,100065.84
2022-10-16T08:16:12.767Z,100074.09
2022-10-16T08:18:41.343Z,100073.50
2022-10-16T08:21:16.828Z,100081.56
2022-10-16T08:23:45.950Z,100081.75
2022-10-16T08:28:58.597Z,100074.28
2022-10-16T08:31:25.836Z,100073.91
2022-10-16T08:33:53.684Z,100064.28
2022-10-16T08:36:20.944Z,100068.97
2022-10-16T08:38:51.722Z,100078.28
2022-10-16T08:41:52.168Z,100067.22
2022-10-16T08:44:46.027Z,100064.03
2022-10-16T08:47:26.448Z,100067.22
2022-10-16T08:50:03.017Z,100082.56
2022-10-16T08:52:35.148Z,100084.66
2022-10-16T08:55:03.206Z,100078.06
2022-10-16T08:57:32.606Z,100084.78
2022-10-16T09:00:06.596Z,100078.84
2022-10-16T09:02:39.867Z,100075.38
2022-10-16T09:05:37.577Z,100073.28
2022-10-16T09:08:37.965Z,100082.72
2022-10-16T09:11:10.517Z,100072.84
2022-10-16T09:13:57.594Z,100064.06
2022-10-16T09:16:58.561Z,100084.97
2022-10-16T09:19:52.631Z,100077.22
2022-10-16T09:22:22.247Z,100076.97
2022-10-16T09:24:49.526Z,100077.75
2022-10-16T09:27:16.717Z,100086.66
2022-10-16T09:29:43.734Z,100081.50
2022-10-16T09:32:19.257Z,100080.59
2022-10-16T09:34:53.517Z,100081.00
2022-10-16T09:37:23.765Z,100078.78
2022-10-16T09:39:52.976Z,100086.09
2022-10-16T09:42:32.486Z,100082.72
2022-10-16T09:44:59.677Z,100075.59
2022-10-16T09:47:31.575Z,100083.91
2022-10-16T09:50:07.161Z,100059.25
2022-10-16T09:52:34.480Z,100089.41
2022-10-16T09:55:16.468Z,100085.25
2022-10-16T09:57:56.318Z,100084.31
2022-10-16T10:00:25.492Z,100075.28
2022-10-16T10:05:28.568Z,100084.16
2022-10-16T10:08:07.426Z,100079.66
2022-10-16T10:10:41.096Z,100073.53
2022-10-16T10:13:36.988Z,100080.00
2022-10-16T10:16:03.939Z,100074.38
2022-10-16T10:18:32.987Z,100073.44
2022-10-16T10:21:02.209Z,100072.19
2022-10-16T10:23:31.503Z,100076.94
2022-10-16T10:26:21.898Z,100086.31
2022-10-16T10:29:22.294Z,100068.53
2022-10-16T10:31:58.181Z,100073.28
2022-10-16T10:34:39.130Z,100067.16
2022-10-16T10:37:22.075Z,100069.47
2022-10-16T10:40:15.912Z,100066.53
2022-10-16T10:42:56.122Z,100066.34
2022-10-16T10:45:37.174Z,100065.06
2022-10-16T10:48:22.720Z,100055.56
2022-10-16T10:51:11.554Z,100056.94
2022-10-16T10:53:50.331Z,100070.19
2022-10-16T10:56:45.901Z,100056.22
2022-10-16T10:59:49.602Z,100057.84
2022-10-16T11:02:39.334Z,100054.28
2022-10-16T11:05:19.321Z,100063.13
2022-10-16T11:08:10.011Z,100057.94
2022-10-16T11:11:03.509Z,100053.69
2022-10-16T11:13:50.925Z,100045.44
2022-10-16T11:16:24.218Z,100049.34
2022-10-16T11:18:59.750Z,100042.63
2022-10-16T11:21:31.172Z,100036.88
2022-10-16T11:24:05.586Z,100043.41
2022-10-16T11:26:36.994Z,100033.72
2022-10-16T11:29:10.129Z,100036.25
2022-10-16T11:31:51.402Z,100024.88
2022-10-16T11:34:40.114Z,100024.25
2022-10-16T11:37:12.013Z,100019.28
2022-10-16T11:39:43.954Z,100029.41
2022-10-16T11:42:38.287Z,100018.72
2022-10-16T11:45:08.169Z,100022.50
2022-10-16T11:48:03.365Z,100021.19
2022-10-16T11:50:42.684Z,100017.97
2022-10-16T11:53:44.973Z,100016.22
2022-10-16T11:56:20.472Z,100011.59
2022-10-16T11:58:53.362Z,100016.19
2022-10-16T12:01:39.923Z,100011.28
2022-10-16T12:04:46.502Z,100007.31
2022-10-16T12:07:19.207Z,100010.53
2022-10-16T12:09:46.250Z,100005.91
2022-10-16T12:12:31.677Z,100007.22
2022-10-16T12:15:17.544Z,100008.28
2022-10-16T12:17:49.598Z,100014.59
2022-10-16T12:20:21.162Z,100006.88
2022-10-16T12:22:56.935Z,100012.47
2022-10-16T12:25:32.003Z,100014.16
2022-10-16T12:28:21.701Z,100020.03
2022-10-16T12:30:58.423Z,100010.34
2022-10-16T12:33:31.279Z,100006.72
2022-10-16T12:36:00.421Z,100012.53
2022-10-16T12:38:33.389Z,100008.31
2022-10-16T12:41:06.298Z,100002.91
2022-10-16T12:43:33.018Z,100009.22
2022-10-16T12:46:07.012Z,100009.69
2022-10-16T12:48:48.252Z,100013.81
2022-10-16T12:51:31.205Z,100007.13
2022-10-16T12:54:06.210Z,100010.00
2022-10-16T12:57:14.328Z,100006.25
2022-10-16T12:59:50.229Z,100015.41
2022-10-16T13:02:35.822Z,100004.28
2022-10-16T13:05:05.395Z,100017.16
2022-10-16T13:07:42.647Z,100004.84
2022-10-16T13:10:57.315Z,100004.09
2022-10-16T13:13:58.964Z,100011.97
2022-10-16T13:16:40.550Z,100017.53
2022-10-16T13:19:31.618Z,100019.03
2022-10-16T13:22:17.222Z,100019.94
2022-10-16T13:25:00.688Z,100018.94
2022-10-16T13:27:33.588Z,100018.75
2022-10-16T13:30:10.884Z,100019.44
2022-10-16T13:32:37.886Z,100019.31
2022-10-16T13:35:19.529Z,100016.72
2022-10-16T13:37:46.424Z,100010.91
2022-10-16T13:40:23.673Z,100021.53
2022-10-16T13:42:52.293Z,100011.41
2022-10-16T13:45:24.232Z,100020.56
2022-10-16T13:47:51.132Z,100025.63
2022-10-16T13:50:19.982Z,100023.88
2022-10-16T13:52:46.822Z,100022.88
2022-10-16T13:55:17.976Z,100029.22
2022-10-16T13:57:45.599Z,100023.97
2022-10-16T14:00:20.354Z,100021.19
2022-10-16T14:02:54.484Z,100026.03
2022-10-16T14:05:21.472Z,100023.09
2022-10-16T14:07:52.225Z,100025.75
2022-10-16T14:10:37.676Z,100025.94
2022-10-16T14:13:07.802Z,100019.69
2022-10-16T14:15:36.778Z,100017.41
2022-10-16T14:18:04.711Z,100022.63
2022-10-16T14:20:35.048Z,100023.66
2022-10-16T14:23:03.516Z,100024.53
2022-10-16T14:25:32.927Z,100017.38
2022-10-16T14:28:16.130Z,100020.91
2022-10-16T14:30:57.472Z,100025.28
2022-10-16T14:33:30.814Z,100027.06
2022-10-16T14:36:05.242Z,100025.72
2022-10-16T14:38:33.473Z,100024.13
2022-10-16T14:41:01.626Z,100032.09
2022-10-16T14:43:40.488Z,100039.47
2022-10-16T14:46:19.442Z,100022.50
2022-10-16T14:48:52.042Z,100030.31
2022-10-16T14:51:20.559Z,100034.84
2022-10-16T14:53:48.033Z,100042.63
2022-10-16T14:56:21.718Z,100036.56
2022-10-16T14:58:50.754Z,100035.63
2022-10-16T15:01:17.654Z,100049.75
2022-10-16T15:03:45.022Z,100048.34
2022-10-16T15:06:16.374Z,100047.41
2022-10-16T15:08:43.656Z,100051.75
2022-10-16T15:11:19.315Z,100056.19
2022-10-16T15:13:47.119Z,100056.19
2022-10-16T15:16:16.969Z,100057.19
2022-10-16T15:18:44.383Z,100067.75
2022-10-16T15:21:32.275Z,100069.63
2022-10-16T15:24:00.637Z,100061.75
2022-10-16T15:26:29.515Z,100071.50
2022-10-16T15:28:56.927Z,100062.75
2022-10-16T15:31:24.483Z,100061.06
2022-10-16T15:33:57.206Z,100071.63
2022-10-16T15:36:32.053Z,100073.41
2022-10-16T15:38:58.873Z,100073.50
2022-10-16T15:41:25.993Z,100068.31
2022-10-16T15:43:53.481Z,100084.13
2022-10-16T15:46:22.465Z,100083.31
2022-10-16T15:48:50.900Z,100076.31
2022-10-16T15:51:19.191Z,100081.63
2022-10-16T15:53:47.581Z,100094.75
2022-10-16T15:56:15.415Z,100097.41
2022-10-16T15:58:42.359Z,100089.59
2022-10-16T16:01:11.103Z,100098.41
2022-10-16T16:03:43.683Z,100103.72
2022-10-16T16:06:13.751Z,100098.50
2022-10-16T16:08:41.137Z,100101.19
2022-10-16T16:11:10.497Z,100098.59
2022-10-16T16:13:41.251Z,100106.53
2022-10-16T16:16:16.465Z,100108.34
2022-10-16T16:18:44.269Z,100115.38
2022-10-16T16:21:12.750Z,100126.78
2022-10-16T16:23:39.602Z,100121.47
2022-10-16T16:26:15.343Z,100118.88
2022-10-16T16:28:44.589Z,100119.75
2022-10-16T16:31:11.542Z,100118.88
2022-10-16T16:33:38.613Z,100133.78
2022-10-16T16:36:11.476Z,100136.41
2022-10-16T16:38:39.945Z,100139.06
2022-10-16T16:41:17.593Z,100146.94
2022-10-16T16:43:44.889Z,100146.06
2022-10-16T16:46:12.693Z,100152.19
2022-10-16T16:48:39.770Z,100149.59
2022-10-16T16:51:08.147Z,100153.91
2022-10-16T16:53:36.595Z,100159.16
2022-10-16T16:56:07.285Z,100159.97
2022-10-16T16:58:34.809Z,100166.97
2022-10-16T17:01:28.724Z,100153.81
2022-10-16T17:03:53.112Z,100175.69
2022-10-16T17:06:22.178Z,100177.41
2022-10-16T17:08:49.927Z,100170.38
2022-10-16T17:11:24.459Z,100168.69
2022-10-16T17:13:56.461Z,100171.22
2022-10-16T17:16:33.808Z,100174.72
2022-10-16T17:19:01.600Z,100175.63
2022-10-16T17:21:30.754Z,100179.94
2022-10-16T17:23:58.005Z,100175.63
2022-10-16T17:26:25.799Z,100193.06
2022-10-16T17:28:58.225Z,100179.91
2022-10-16T17:31:45.835Z,100187.78
2022-10-16T17:34:13.486Z,100191.25
2022-10-16T17:36:44.319Z,100202.56
2022-10-16T17:39:13.206Z,100201.66
2022-10-16T17:41:40.250Z,100211.28
2022-10-16T17:44:08.326Z,100204.25
2022-10-16T17:46:39.937Z,100214.66
2022-10-16T17:49:07.995Z,100221.63
2022-10-16T17:51:34.912Z,100223.38
2022-10-16T17:54:02.360Z,100234.66
2022-10-16T17:56:30.118Z,100224.97
2022-10-16T17:59:02.021Z,100229.19
2022-10-16T18:01:32.116Z,100222.94
2022-10-16T18:04:12.528Z,100231.63
2022-10-16T18:06:41.708Z,100225.38
2022-10-16T18:09:09.637Z,100237.53
2022-10-16T18:11:36.924Z,100235.72
2022-10-16T18:14:04.706Z,100240.88
2022-10-16T18:16:32.397Z,100240.84
2022-10-16T18:18:59.595Z,100245.13
2022-10-16T18:21:27.694Z,100255.50
2022-10-16T18:23:54.981Z,100247.50
2022-10-16T18:26:23.549Z,100247.44
2022-10-16T18:28:55.836Z,100250.03
2022-10-16T18:31:23.835Z,100248.28
2022-10-16T18:33:51.562Z,100256.88
2022-10-16T18:36:24.365Z,100259.44
2022-10-16T18:38:51.989Z,100267.22
2022-10-16T18:41:19.505Z,100264.47
2022-10-16T18:43:46.656Z,100271.47
2022-10-16T18:46:17.687Z,100265.25
2022-10-16T18:48:45.267Z,100278.28
2022-10-16T18:51:34.296Z,100273.72
2022-10-16T18:54:13.006Z,100272.81
2022-10-16T18:56:40.555Z,100273.50
2022-10-16T18:59:09.085Z,100287.44
2022-10-16T19:01:38.855Z,100296.22
2022-10-16T19:04:12.858Z,100292.63
2022-10-16T19:06:45.261Z,100295.97
2022-10-16T19:09:14.044Z,100303.78
2022-10-16T19:11:42.282Z,100305.47
2022-10-16T19:14:10.982Z,100312.47
2022-10-16T19:16:38.845Z,100321.16
2022-10-16T19:19:07.953Z,100329.69
2022-10-16T19:21:39.838Z,100328.75
2022-10-16T19:24:07.064Z,100325.94
2022-10-16T19:26:36.826Z,100326.69
2022-10-16T19:29:07.356Z,100332.75
2022-10-16T19:31:34.635Z,100337.81
2022-10-16T19:34:03.595Z,100342.09
2022-10-16T19:36:35.534Z,100340.38
2022-10-16T19:39:06.930Z,100341.28
2022-10-16T19:41:36.147Z,100345.41
2022-10-16T19:44:04.856Z,100350.44
2022-10-16T19:46:33.395Z,100352.28
2022-10-16T19:49:02.971Z,100359.84
2022-10-16T19:51:31.024Z,100361.50
2022-10-16T19:54:00.335Z,100357.84
2022-10-16T19:56:28.976Z,100359.59
2022-10-16T19:58:57.920Z,100357.69
2022-10-16T20:01:27.349Z,100374.22
2022-10-16T20:03:54.336Z,100360.00
2022-10-16T20:06:21.474Z,100366.06
2022-10-16T20:08:51.778Z,100377.16
2022-10-16T20:11:28.637Z,100367.44
2022-10-16T20:13:55.954Z,100382.25
2022-10-16T20:16:22.875Z,100363.06
2022-10-16T20:18:51.189Z,100376.03
2022-10-16T20:21:21.027Z,100375.81
2022-10-16T20:23:49.154Z,100376.72
2022-10-16T20:26:16.987Z,100386.09
2022-10-16T20:28:44.828Z,100382.47
2022-10-16T20:31:22.585Z,100386.84
2022-10-16T20:33:50.937Z,100389.22
2022-10-16T20:36:18.557Z,100390.75
2022-10-16T20:38:45.807Z,100380.09
2022-10-16T20:41:14.078Z,100376.47
2022-10-16T20:46:13.740Z,100396.22
2022-10-16T20:48:44.417Z,100402.16
2022-10-16T20:51:24.707Z,100397.72
2022-10-16T20:54:03.227Z,100398.56
2022-10-16T20:56:32.246Z,100393.91
2022-10-16T20:58:59.392Z,100400.16
2022-10-16T21:01:28.505Z,100400.81
2022-10-16T21:03:58.188Z,100409.44
2022-10-16T21:06:28.731Z,100398.97
2022-10-16T21:08:55.635Z,100404.94
2022-10-16T21:11:25.430Z,100404.94
2022-10-16T21:13:54.438Z,100412.84
2022-10-16T21:16:21.857Z,100421.44
2022-10-16T21:18:49.137Z,100421.38
2022-10-16T21:21:20.742Z,100415.06
2022-10-16T21:23:49.295Z,100420.19
2022-10-16T21:26:18.310Z,100427.69
2022-10-16T21:28:45.487Z,100424.47
2022-10-16T21:31:22.067Z,100427.69
2022-10-16T21:33:49.127Z,100424.88
2022-10-16T21:36:30.918Z,100432.59
2022-10-16T21:39:02.215Z,100430.22
2022-10-16T21:41:29.929Z,100436.19
2022-10-16T21:43:57.698Z,100437.88
2022-10-16T21:46:27.401Z,100444.81
2022-10-16T21:48:58.899Z,100441.03
2022-10-16T21:51:27.799Z,100443.59
2022-10-16T21:53:55.384Z,100443.81
2022-10-16T21:56:23.317Z,100437.88
2022-10-16T21:58:50.533Z,100447.19
2022-10-16T22:01:20.664Z,100449.09
2022-10-16T22:03:47.996Z,100441.78
2022-10-16T22:06:17.158Z,100441.00
2022-10-16T22:08:47.730Z,100448.69
2022-10-16T22:11:17.766Z,100449.56
2022-10-16T22:13:46.740Z,100443.28
2022-10-16T22:16:13.654Z,100439.94
2022-10-16T22:18:40.933Z,100444.31
2022-10-16T22:21:09.023Z,100451.78
2022-10-16T22:23:36.861Z,100455.22
2022-10-16T22:26:09.582Z,100461.09
2022-10-16T22:28:37.839Z,100450.38
2022-10-16T22:36:07.661Z,100467.66
2022-10-16T22:38:36.434Z,100466.94
2022-10-16T22:41:08.464Z,100460.81
2022-10-16T22:43:37.362Z,100468.44
2022-10-16T22:46:09.682Z,100467.50
2022-10-16T22:48:36.943Z,100467.06
2022-10-16T22:51:05.570Z,100467.97
2022-10-16T22:53:33.301Z,100473.97
2022-10-16T22:56:00.261Z,100471.03
2022-10-16T22:58:27.358Z,100482.91
2022-10-16T23:00:54.502Z,100477.22
2022-10-16T23:03:22.421Z,100485.16
2022-10-16T23:05:49.486Z,100485.44
2022-10-16T23:08:16.529Z,100476.78
2022-10-16T23:10:46.005Z,100483.72
2022-10-16T23:13:13.729Z,100483.47
2022-10-16T23:15:41.901Z,100485.31
2022-10-16T23:18:09.323Z,100479.50
2022-10-16T23:20:39.641Z,100488.84
2022-10-16T23:23:06.696Z,100484.47
2022-10-16T23:25:33.719Z,100491.50
2022-10-16T23:28:00.535Z,100494.84
2022-10-16T23:30:27.434Z,100492.69
2022-10-16T23:32:54.273Z,100493.59
2022-10-16T23:35:21.119Z,100493.59
2022-10-16T23:37:48.283Z,100496.91
2022-10-16T23:40:15.177Z,100500.91
2022-10-16T23:42:41.970Z,100500.66
2022-10-16T23:45:09.149Z,100491.94
2022-10-16T23:47:36.029Z,100495.78
2022-10-16T23:50:02.954Z,100500.22
2022-10-16T23:52:29.890Z,100500.63
2022-10-16T23:54:56.723Z,100502.41
2022-10-16T23:57:23.566Z,100503.16
2022-10-16T23:59:50.507Z,100504.84
